sensor_id;sensor_type;location;lat;lon;timestamp;pressure;altitude;pressure_sealevel;temperature;humidity
13312;BME280;34033;48.672;9.376;2023-03-22T00:00:24;98377.84;;;12.77;66.62
13312;BME280;34033;48.672;9.376;2023-03-22T00:02:52;98379.06;;;12.76;66.84
13312;BME280;34033;48.672;9.376;2023-03-22T00:05:18;98377.84;;;12.77;67.22
13312;BME280;34033;48.672;9.376;2023-03-22T00:07:43;98379.88;;;12.69;67.62
13312;BME280;34033;48.672;9.376;2023-03-22T00:10:08;98381.88;;;12.69;67.70
13312;BME280;34033;48.672;9.376;2023-03-22T00:12:34;98381.06;;;12.68;67.64
13312;BME280;34033;48.672;9.376;2023-03-22T00:14:59;98377.09;;;12.66;67.60
13312;BME280;34033;48.672;9.376;2023-03-22T00:17:25;98377.13;;;12.62;67.29
13312;BME280;34033;48.672;9.376;2023-03-22T00:19:50;98377.50;;;12.61;67.77
13312;BME280;34033;48.672;9.376;2023-03-22T00:22:18;98375.50;;;12.65;67.61
13312;BME280;34033;48.672;9.376;2023-03-22T00:24:44;98377.91;;;12.66;67.40
13312;BME280;34033;48.672;9.376;2023-03-22T00:27:10;98372.66;;;12.68;67.34
13312;BME280;34033;48.672;9.376;2023-03-22T00:29:35;98371.88;;;12.64;67.27
13312;BME280;34033;48.672;9.376;2023-03-22T00:32:00;98370.72;;;12.54;67.11
13312;BME280;34033;48.672;9.376;2023-03-22T00:34:30;98373.94;;;12.49;67.86
13312;BME280;34033;48.672;9.376;2023-03-22T00:36:55;98375.13;;;12.52;68.60
13312;BME280;34033;48.672;9.376;2023-03-22T00:39:21;98370.34;;;12.49;69.28
13312;BME280;34033;48.672;9.376;2023-03-22T00:41:47;98369.13;;;12.46;69.13
13312;BME280;34033;48.672;9.376;2023-03-22T00:44:12;98359.91;;;12.46;68.97
13312;BME280;34033;48.672;9.376;2023-03-22T00:46:37;98356.31;;;12.42;68.65
13312;BME280;34033;48.672;9.376;2023-03-22T00:49:03;98361.16;;;12.38;68.35
13312;BME280;34033;48.672;9.376;2023-03-22T00:51:28;98355.94;;;12.36;68.21
13312;BME280;34033;48.672;9.376;2023-03-22T00:53:53;98356.34;;;12.31;68.34
13312;BME280;34033;48.672;9.376;2023-03-22T00:56:19;98356.38;;;12.21;67.95
13312;BME280;34033;48.672;9.376;2023-03-22T00:58:47;98356.41;;;12.17;67.90
13312;BME280;34033;48.672;9.376;2023-03-22T01:01:13;98344.38;;;12.13;68.06
13312;BME280;34033;48.672;9.376;2023-03-22T01:03:39;98347.59;;;12.11;67.56
13312;BME280;34033;48.672;9.376;2023-03-22T01:06:05;98347.22;;;12.06;67.66
13312;BME280;34033;48.672;9.376;2023-03-22T01:08:31;98342.44;;;11.96;68.00
13312;BME280;34033;48.672;9.376;2023-03-22T01:10:57;98342.00;;;11.87;68.61
13312;BME280;34033;48.672;9.376;2023-03-22T01:13:23;98340.41;;;11.82;68.97
13312;BME280;34033;48.672;9.376;2023-03-22T01:15:51;98341.63;;;11.81;69.56
13312;BME280;34033;48.672;9.376;2023-03-22T01:18:17;98338.00;;;11.81;69.48
13312;BME280;34033;48.672;9.376;2023-03-22T01:20:42;98338.03;;;11.77;69.24
13312;BME280;34033;48.672;9.376;2023-03-22T01:23:07;98334.44;;;11.73;69.44
13312;BME280;34033;48.672;9.376;2023-03-22T01:25:33;98339.22;;;11.76;69.35
13312;BME280;34033;48.672;9.376;2023-03-22T01:27:58;98342.00;;;11.73;69.08
13312;BME280;34033;48.672;9.376;2023-03-22T01:30:26;98335.59;;;11.72;69.29
13312;BME280;34033;48.672;9.376;2023-03-22T01:32:51;98328.41;;;11.75;68.67
13312;BME280;34033;48.672;9.376;2023-03-22T01:35:17;98324.84;;;11.74;68.41
13312;BME280;34033;48.672;9.376;2023-03-22T01:37:42;98325.59;;;11.67;68.53
13312;BME280;34033;48.672;9.376;2023-03-22T01:40:09;98324.38;;;11.58;68.96
13312;BME280;34033;48.672;9.376;2023-03-22T01:42:35;98316.78;;;11.58;68.66
13312;BME280;34033;48.672;9.376;2023-03-22T01:47:52;98312.81;;;11.56;68.41
13312;BME280;34033;48.672;9.376;2023-03-22T01:50:19;98312.41;;;11.54;68.11
13312;BME280;34033;48.672;9.376;2023-03-22T01:52:46;98309.59;;;11.50;68.14
13312;BME280;34033;48.672;9.376;2023-03-22T01:55:12;98309.59;;;11.40;68.64
13312;BME280;34033;48.672;9.376;2023-03-22T01:57:38;98306.00;;;11.28;68.65
13312;BME280;34033;48.672;9.376;2023-03-22T02:00:08;98308.38;;;11.16;69.30
13312;BME280;34033;48.672;9.376;2023-03-22T02:02:38;98303.97;;;11.15;69.26
13312;BME280;34033;48.672;9.376;2023-03-22T02:05:03;98309.97;;;11.17;69.12
13312;BME280;34033;48.672;9.376;2023-03-22T02:07:29;98309.59;;;11.18;68.95
13312;BME280;34033;48.672;9.376;2023-03-22T02:09:56;98303.56;;;11.20;68.79
13312;BME280;34033;48.672;9.376;2023-03-22T02:18:00;98294.38;;;11.16;68.49
13312;BME280;34033;48.672;9.376;2023-03-22T02:20:50;98295.97;;;11.10;68.76
13312;BME280;34033;48.672;9.376;2023-03-22T02:28:43;98294.78;;;10.97;68.85
13312;BME280;34033;48.672;9.376;2023-03-22T02:47:01;98289.84;;;10.51;70.02
13312;BME280;34033;48.672;9.376;2023-03-22T02:49:45;98289.84;;;10.55;69.76
13312;BME280;34033;48.672;9.376;2023-03-22T02:52:29;98294.63;;;10.54;69.96
13312;BME280;34033;48.672;9.376;2023-03-22T02:57:51;98290.63;;;10.52;69.58
13312;BME280;34033;48.672;9.376;2023-03-22T03:00:19;98286.66;;;10.53;69.19
13312;BME280;34033;48.672;9.376;2023-03-22T03:02:52;98285.84;;;10.52;69.39
13312;BME280;34033;48.672;9.376;2023-03-22T03:05:19;98297.03;;;10.52;69.46
13312;BME280;34033;48.672;9.376;2023-03-22T03:07:49;98290.19;;;10.42;69.35
13312;BME280;34033;48.672;9.376;2023-03-22T03:10:17;98292.56;;;10.33;69.65
13312;BME280;34033;48.672;9.376;2023-03-22T03:12:43;98296.53;;;10.25;70.24
13312;BME280;34033;48.672;9.376;2023-03-22T03:15:13;98295.72;;;10.25;70.44
13312;BME280;34033;48.672;9.376;2023-03-22T03:18:03;98296.09;;;10.27;70.37
13312;BME280;34033;48.672;9.376;2023-03-22T03:26:19;98297.59;;;10.10;70.23
13312;BME280;34033;48.672;9.376;2023-03-22T03:29:02;98298.44;;;10.14;70.57
13312;BME280;34033;48.672;9.376;2023-03-22T03:31:39;98304.00;;;10.14;70.02
13312;BME280;34033;48.672;9.376;2023-03-22T03:34:15;98305.13;;;10.02;70.10
13312;BME280;34033;48.672;9.376;2023-03-22T03:36:48;98306.72;;;10.00;70.34
13312;BME280;34033;48.672;9.376;2023-03-22T03:39:17;98314.72;;;10.01;69.84
13312;BME280;34033;48.672;9.376;2023-03-22T03:41:45;98305.13;;;10.02;69.91
13312;BME280;34033;48.672;9.376;2023-03-22T03:44:12;98308.69;;;9.96;70.19
13312;BME280;34033;48.672;9.376;2023-03-22T03:46:39;98302.31;;;9.95;70.26
13312;BME280;34033;48.672;9.376;2023-03-22T03:49:06;98312.28;;;9.96;70.04
13312;BME280;34033;48.672;9.376;2023-03-22T03:51:44;98319.06;;;9.95;69.90
13312;BME280;34033;48.672;9.376;2023-03-22T03:54:10;98320.25;;;9.94;70.08
13312;BME280;34033;48.672;9.376;2023-03-22T03:56:35;98326.19;;;9.86;69.49
13312;BME280;34033;48.672;9.376;2023-03-22T03:59:01;98325.31;;;9.78;70.49
13312;BME280;34033;48.672;9.376;2023-03-22T04:01:26;98321.34;;;9.79;70.20
13312;BME280;34033;48.672;9.376;2023-03-22T04:03:52;98322.16;;;9.83;70.30
13312;BME280;34033;48.672;9.376;2023-03-22T04:06:19;98320.56;;;9.82;70.41
13312;BME280;34033;48.672;9.376;2023-03-22T04:08:45;98321.28;;;9.72;70.90
13312;BME280;34033;48.672;9.376;2023-03-22T04:11:10;98315.25;;;9.63;70.78
13312;BME280;34033;48.672;9.376;2023-03-22T04:13:35;98324.44;;;9.67;70.97
13312;BME280;34033;48.672;9.376;2023-03-22T04:16:00;98324.06;;;9.69;71.15
13312;BME280;34033;48.672;9.376;2023-03-22T04:18:26;98314.81;;;9.61;71.36
13312;BME280;34033;48.672;9.376;2023-03-22T04:20:53;98319.59;;;9.60;71.26
13312;BME280;34033;48.672;9.376;2023-03-22T04:23:21;98321.63;;;9.63;70.39
13312;BME280;34033;48.672;9.376;2023-03-22T04:25:47;98316.44;;;9.62;70.58
13312;BME280;34033;48.672;9.376;2023-03-22T04:28:14;98325.97;;;9.57;70.30
13312;BME280;34033;48.672;9.376;2023-03-22T04:30:40;98317.53;;;9.50;70.85
13312;BME280;34033;48.672;9.376;2023-03-22T04:33:05;98317.50;;;9.47;71.40
13312;BME280;34033;48.672;9.376;2023-03-22T04:35:34;98311.56;;;9.52;71.32
13312;BME280;34033;48.672;9.376;2023-03-22T04:38:00;98319.66;;;9.71;70.64
13312;BME280;34033;48.672;9.376;2023-03-22T04:40:26;98315.81;;;9.86;69.99
13312;BME280;34033;48.672;9.376;2023-03-22T04:42:56;98311.06;;;9.94;69.41
13312;BME280;34033;48.672;9.376;2023-03-22T04:45:22;98318.69;;;10.04;69.96
13312;BME280;34033;48.672;9.376;2023-03-22T04:47:47;98323.94;;;10.13;69.50
13312;BME280;34033;48.672;9.376;2023-03-22T04:50:12;98326.75;;;10.13;68.32
13312;BME280;34033;48.672;9.376;2023-03-22T04:52:38;98316.03;;;10.18;67.88
13312;BME280;34033;48.672;9.376;2023-03-22T04:55:03;98309.66;;;10.21;68.45
13312;BME280;34033;48.672;9.376;2023-03-22T04:57:29;98309.25;;;10.23;68.14
13312;BME280;34033;48.672;9.376;2023-03-22T04:59:54;98310.50;;;10.25;67.56
13312;BME280;34033;48.672;9.376;2023-03-22T05:02:20;98315.66;;;10.27;67.27
13312;BME280;34033;48.672;9.376;2023-03-22T05:04:45;98317.69;;;10.30;66.74
13312;BME280;34033;48.672;9.376;2023-03-22T05:07:10;98308.88;;;10.28;66.68
13312;BME280;34033;48.672;9.376;2023-03-22T05:09:36;98309.13;;;10.99;77.86
13312;BME280;34033;48.672;9.376;2023-03-22T05:12:01;98302.31;;;10.93;71.90
13312;BME280;34033;48.672;9.376;2023-03-22T05:14:27;98294.31;;;10.87;67.74
13312;BME280;34033;48.672;9.376;2023-03-22T05:16:53;98294.72;;;10.82;66.96
13312;BME280;34033;48.672;9.376;2023-03-22T05:19:18;98294.31;;;10.73;65.66
13312;BME280;34033;48.672;9.376;2023-03-22T05:21:47;98293.09;;;10.67;65.07
13312;BME280;34033;48.672;9.376;2023-03-22T05:24:12;98281.88;;;10.60;64.81
13312;BME280;34033;48.672;9.376;2023-03-22T05:26:38;98275.84;;;10.55;64.37
13312;BME280;34033;48.672;9.376;2023-03-22T05:29:07;98278.25;;;10.49;64.84
13312;BME280;34033;48.672;9.376;2023-03-22T05:31:34;98275.03;;;10.40;64.68
13312;BME280;34033;48.672;9.376;2023-03-22T05:33:59;98279.38;;;10.34;65.14
13312;BME280;34033;48.672;9.376;2023-03-22T05:36:26;98275.75;;;10.26;65.68
13312;BME280;34033;48.672;9.376;2023-03-22T05:38:54;98283.31;;;10.26;65.49
13312;BME280;34033;48.672;9.376;2023-03-22T05:41:20;98286.13;;;10.22;65.75
13312;BME280;34033;48.672;9.376;2023-03-22T05:43:45;98283.31;;;10.22;66.25
13312;BME280;34033;48.672;9.376;2023-03-22T05:46:11;98285.34;;;10.29;65.86
13312;BME280;34033;48.672;9.376;2023-03-22T05:48:37;98285.72;;;10.24;65.73
13312;BME280;34033;48.672;9.376;2023-03-22T05:51:07;98287.34;;;10.25;65.56
13312;BME280;34033;48.672;9.376;2023-03-22T05:53:33;98278.16;;;10.24;65.56
13312;BME280;34033;48.672;9.376;2023-03-22T05:55:59;98277.72;;;10.22;65.66
13312;BME280;34033;48.672;9.376;2023-03-22T05:58:28;98270.16;;;10.23;65.78
13312;BME280;34033;48.672;9.376;2023-03-22T06:00:56;98271.38;;;10.29;66.36
13312;BME280;34033;48.672;9.376;2023-03-22T06:03:21;98270.19;;;10.33;66.19
13312;BME280;34033;48.672;9.376;2023-03-22T06:05:47;98265.03;;;10.35;65.58
13312;BME280;34033;48.672;9.376;2023-03-22T06:08:15;98275.03;;;10.43;65.38
13312;BME280;34033;48.672;9.376;2023-03-22T06:10:40;98273.41;;;10.42;65.86
13312;BME280;34033;48.672;9.376;2023-03-22T06:13:06;98268.25;;;10.44;65.61
13312;BME280;34033;48.672;9.376;2023-03-22T06:15:31;98276.25;;;10.46;65.81
13312;BME280;34033;48.672;9.376;2023-03-22T06:17:56;98272.25;;;10.47;65.89
13312;BME280;34033;48.672;9.376;2023-03-22T06:20:22;98273.84;;;10.48;66.00
13312;BME280;34033;48.672;9.376;2023-03-22T06:22:47;98271.84;;;10.45;66.58
13312;BME280;34033;48.672;9.376;2023-03-22T06:25:12;98276.25;;;10.53;67.06
13312;BME280;34033;48.672;9.376;2023-03-22T06:27:38;98276.34;;;10.78;68.61
13312;BME280;34033;48.672;9.376;2023-03-22T06:30:04;98278.38;;;10.99;67.95
13312;BME280;34033;48.672;9.376;2023-03-22T06:32:30;98277.56;;;10.98;67.31
13312;BME280;34033;48.672;9.376;2023-03-22T06:34:55;98283.97;;;11.06;67.65
13312;BME280;34033;48.672;9.376;2023-03-22T06:37:21;98279.19;;;11.10;66.86
13312;BME280;34033;48.672;9.376;2023-03-22T06:39:47;98283.63;;;11.36;67.31
13312;BME280;34033;48.672;9.376;2023-03-22T06:42:13;98286.78;;;11.41;66.54
13312;BME280;34033;48.672;9.376;2023-03-22T06:44:39;98294.00;;;11.67;66.75
13312;BME280;34033;48.672;9.376;2023-03-22T06:47:08;98301.59;;;11.88;65.48
13312;BME280;34033;48.672;9.376;2023-03-22T06:49:33;98300.41;;;11.75;64.78
13312;BME280;34033;48.672;9.376;2023-03-22T06:51:58;98296.41;;;11.61;64.76
13312;BME280;34033;48.672;9.376;2023-03-22T06:54:24;98296.41;;;11.47;65.08
13312;BME280;34033;48.672;9.376;2023-03-22T06:56:50;98308.81;;;11.39;65.44
13312;BME280;34033;48.672;9.376;2023-03-22T06:59:15;98299.19;;;11.37;65.45
13312;BME280;34033;48.672;9.376;2023-03-22T07:01:40;98301.19;;;11.36;65.86
13312;BME280;34033;48.672;9.376;2023-03-22T07:04:06;98300.81;;;11.34;66.02
13312;BME280;34033;48.672;9.376;2023-03-22T07:06:31;98300.41;;;11.32;66.15
13312;BME280;34033;48.672;9.376;2023-03-22T07:08:57;98298.00;;;11.34;66.29
13312;BME280;34033;48.672;9.376;2023-03-22T07:11:23;98301.22;;;11.40;65.96
13312;BME280;34033;48.672;9.376;2023-03-22T07:13:50;98301.59;;;11.49;65.90
13312;BME280;34033;48.672;9.376;2023-03-22T07:16:15;98294.00;;;11.56;65.98
13312;BME280;34033;48.672;9.376;2023-03-22T07:18:41;98295.59;;;11.64;65.45
13312;BME280;34033;48.672;9.376;2023-03-22T07:21:06;98296.41;;;11.68;65.44
13312;BME280;34033;48.672;9.376;2023-03-22T07:23:32;98297.59;;;11.71;65.30
13312;BME280;34033;48.672;9.376;2023-03-22T07:25:59;98295.22;;;11.77;64.86
13312;BME280;34033;48.672;9.376;2023-03-22T07:28:24;98294.00;;;11.81;64.82
13312;BME280;34033;48.672;9.376;2023-03-22T07:31:01;98298.41;;;11.86;64.79
13312;BME280;34033;48.672;9.376;2023-03-22T07:33:28;98296.41;;;11.90;64.80
13312;BME280;34033;48.672;9.376;2023-03-22T07:35:54;98302.41;;;11.95;64.91
13312;BME280;34033;48.672;9.376;2023-03-22T07:38:19;98301.97;;;12.04;65.24
13312;BME280;34033;48.672;9.376;2023-03-22T07:40:45;98293.56;;;12.11;64.86
13312;BME280;34033;48.672;9.376;2023-03-22T07:43:10;98300.31;;;12.21;64.27
13312;BME280;34033;48.672;9.376;2023-03-22T07:45:37;98300.72;;;12.26;64.37
13312;BME280;34033;48.672;9.376;2023-03-22T07:48:03;98293.09;;;12.34;64.25
13312;BME280;34033;48.672;9.376;2023-03-22T07:50:28;98289.47;;;12.40;63.69
13312;BME280;34033;48.672;9.376;2023-03-22T07:52:53;98295.84;;;12.41;63.77
13312;BME280;34033;48.672;9.376;2023-03-22T07:55:19;98296.28;;;12.39;63.51
13312;BME280;34033;48.672;9.376;2023-03-22T07:57:44;98291.03;;;12.41;63.24
13312;BME280;34033;48.672;9.376;2023-03-22T08:00:10;98300.63;;;12.47;62.94
13312;BME280;34033;48.672;9.376;2023-03-22T08:02:36;98295.41;;;12.57;63.38
13312;BME280;34033;48.672;9.376;2023-03-22T08:05:03;98292.16;;;12.65;62.51
13312;BME280;34033;48.672;9.376;2023-03-22T08:07:28;98294.91;;;12.76;62.43
13312;BME280;34033;48.672;9.376;2023-03-22T08:09:54;98288.03;;;12.87;61.90
13312;BME280;34033;48.672;9.376;2023-03-22T08:12:20;98290.78;;;12.98;62.21
13312;BME280;34033;48.672;9.376;2023-03-22T08:14:45;98290.31;;;13.07;61.69
13312;BME280;34033;48.672;9.376;2023-03-22T08:17:14;98296.31;;;13.16;61.45
13312;BME280;34033;48.672;9.376;2023-03-22T08:19:40;98290.66;;;13.19;60.96
13312;BME280;34033;48.672;9.376;2023-03-22T08:22:05;98301.53;;;13.14;60.58
13312;BME280;34033;48.672;9.376;2023-03-22T08:24:31;98285.44;;;13.21;60.44
13312;BME280;34033;48.672;9.376;2023-03-22T08:26:56;98295.75;;;13.39;60.57
13312;BME280;34033;48.672;9.376;2023-03-22T08:29:21;98294.88;;;13.49;59.91
13312;BME280;34033;48.672;9.376;2023-03-22T08:31:47;98294.72;;;13.63;58.93
13312;BME280;34033;48.672;9.376;2023-03-22T08:34:13;98290.63;;;13.74;59.41
13312;BME280;34033;48.672;9.376;2023-03-22T08:36:38;98291.38;;;13.82;58.40
13312;BME280;34033;48.672;9.376;2023-03-22T08:39:04;98292.88;;;13.90;57.81
13312;BME280;34033;48.672;9.376;2023-03-22T08:41:30;98291.22;;;13.96;57.77
13312;BME280;34033;48.672;9.376;2023-03-22T08:43:55;98289.63;;;13.95;57.29
13312;BME280;34033;48.672;9.376;2023-03-22T08:46:21;98289.94;;;14.04;57.52
13312;BME280;34033;48.672;9.376;2023-03-22T08:48:47;98288.63;;;14.16;56.69
13312;BME280;34033;48.672;9.376;2023-03-22T08:51:16;98284.81;;;14.33;56.56
13312;BME280;34033;48.672;9.376;2023-03-22T08:53:41;98281.13;;;14.40;55.62
13312;BME280;34033;48.672;9.376;2023-03-22T08:56:07;98271.34;;;14.51;55.45
13312;BME280;34033;48.672;9.376;2023-03-22T08:58:33;98268.50;;;14.55;55.24
13312;BME280;34033;48.672;9.376;2023-03-22T09:00:59;98267.31;;;14.52;54.41
13312;BME280;34033;48.672;9.376;2023-03-22T09:03:25;98271.78;;;14.50;54.08
13312;BME280;34033;48.672;9.376;2023-03-22T09:05:50;98261.94;;;14.65;54.90
13312;BME280;34033;48.672;9.376;2023-03-22T09:08:15;98257.31;;;14.78;54.37
13312;BME280;34033;48.672;9.376;2023-03-22T09:10:41;98253.59;;;14.88;54.22
13312;BME280;34033;48.672;9.376;2023-03-22T09:13:06;98258.75;;;14.93;51.63
13312;BME280;34033;48.672;9.376;2023-03-22T09:15:32;98253.94;;;14.90;52.52
13312;BME280;34033;48.672;9.376;2023-03-22T09:17:57;98244.22;;;14.95;51.91
13312;BME280;34033;48.672;9.376;2023-03-22T09:20:23;98245.78;;;14.99;51.12
13312;BME280;34033;48.672;9.376;2023-03-22T09:22:50;98236.41;;;15.06;50.28
13312;BME280;34033;48.672;9.376;2023-03-22T09:25:16;98237.22;;;15.07;51.68
13312;BME280;34033;48.672;9.376;2023-03-22T09:27:42;98245.72;;;15.03;51.26
13312;BME280;34033;48.672;9.376;2023-03-22T09:30:08;98252.66;;;14.95;51.39
13312;BME280;34033;48.672;9.376;2023-03-22T09:32:33;98243.50;;;14.91;51.43
13312;BME280;34033;48.672;9.376;2023-03-22T09:34:58;98243.41;;;14.94;51.74
13312;BME280;34033;48.672;9.376;2023-03-22T09:37:24;98245.34;;;15.01;51.25
13312;BME280;34033;48.672;9.376;2023-03-22T09:39:55;98229.63;;;15.03;51.46
13312;BME280;34033;48.672;9.376;2023-03-22T09:44:50;98228.44;;;15.28;51.15
13312;BME280;34033;48.672;9.376;2023-03-22T09:47:24;98220.97;;;15.41;51.10
13312;BME280;34033;48.672;9.376;2023-03-22T09:50:04;98223.22;;;15.53;50.71
13312;BME280;34033;48.672;9.376;2023-03-22T09:52:31;98216.00;;;15.52;50.27
13312;BME280;34033;48.672;9.376;2023-03-22T09:54:58;98222.63;;;15.65;50.14
13312;BME280;34033;48.672;9.376;2023-03-22T09:57:34;98209.28;;;15.66;49.84
13312;BME280;34033;48.672;9.376;2023-03-22T10:02:53;98208.47;;;15.89;49.98
13312;BME280;34033;48.672;9.376;2023-03-22T10:10:33;98187.25;;;16.23;48.53
13312;BME280;34033;48.672;9.376;2023-03-22T10:16:26;98193.31;;;16.42;47.01
13312;BME280;34033;48.672;9.376;2023-03-22T10:18:57;98180.34;;;16.44;47.14
13312;BME280;34033;48.672;9.376;2023-03-22T10:21:26;98177.25;;;16.58;46.33
13312;BME280;34033;48.672;9.376;2023-03-22T10:23:56;98175.81;;;16.70;46.83
13312;BME280;34033;48.672;9.376;2023-03-22T10:26:44;98165.16;;;16.94;46.34
13312;BME280;34033;48.672;9.376;2023-03-22T10:29:23;98152.34;;;17.05;45.05
13312;BME280;34033;48.672;9.376;2023-03-22T10:31:52;98161.09;;;17.11;43.64
13312;BME280;34033;48.672;9.376;2023-03-22T10:34:22;98159.59;;;17.06;42.62
13312;BME280;34033;48.672;9.376;2023-03-22T10:36:50;98155.72;;;17.00;43.01
13312;BME280;34033;48.672;9.376;2023-03-22T10:39:27;98150.06;;;17.00;43.31
13312;BME280;34033;48.672;9.376;2023-03-22T10:41:55;98143.63;;;17.00;43.56
13312;BME280;34033;48.672;9.376;2023-03-22T10:44:22;98148.56;;;16.80;43.37
13312;BME280;34033;48.672;9.376;2023-03-22T10:46:50;98138.66;;;16.72;43.69
13312;BME280;34033;48.672;9.376;2023-03-22T10:49:32;98135.81;;;16.72;43.77
13312;BME280;34033;48.672;9.376;2023-03-22T10:52:12;98140.78;;;16.84;43.58
13312;BME280;34033;48.672;9.376;2023-03-22T10:54:41;98129.59;;;16.96;43.46
13312;BME280;34033;48.672;9.376;2023-03-22T10:57:07;98143.56;;;17.03;43.04
13312;BME280;34033;48.672;9.376;2023-03-22T10:59:49;98130.41;;;17.13;42.62
13312;BME280;34033;48.672;9.376;2023-03-22T11:02:20;98125.97;;;17.28;42.44
13312;BME280;34033;48.672;9.376;2023-03-22T11:04:51;98121.72;;;17.36;41.82
13312;BME280;34033;48.672;9.376;2023-03-22T11:07:30;98126.31;;;17.46;40.93
13312;BME280;34033;48.672;9.376;2023-03-22T11:09:58;98121.09;;;17.61;40.74
13312;BME280;34033;48.672;9.376;2023-03-22T11:12:24;98124.06;;;17.70;41.17
13312;BME280;34033;48.672;9.376;2023-03-22T11:14:49;98122.47;;;17.98;41.27
13312;BME280;34033;48.672;9.376;2023-03-22T11:17:18;98122.50;;;18.11;40.41
13312;BME280;34033;48.672;9.376;2023-03-22T11:19:56;98121.38;;;18.08;40.24
13312;BME280;34033;48.672;9.376;2023-03-22T11:22:35;98119.25;;;18.12;40.24
13312;BME280;34033;48.672;9.376;2023-03-22T11:25:08;98117.44;;;18.18;39.95
13312;BME280;34033;48.672;9.376;2023-03-22T11:27:52;98098.59;;;18.41;40.22
13312;BME280;34033;48.672;9.376;2023-03-22T11:30:24;98103.94;;;18.64;39.96
13312;BME280;34033;48.672;9.376;2023-03-22T11:35:31;98096.69;;;19.01;38.19
13312;BME280;34033;48.672;9.376;2023-03-22T11:37:57;98081.56;;;19.16;37.79
13312;BME280;34033;48.672;9.376;2023-03-22T11:40:28;98081.22;;;19.14;37.93
13312;BME280;34033;48.672;9.376;2023-03-22T11:43:00;98083.25;;;19.27;37.42
13312;BME280;34033;48.672;9.376;2023-03-22T11:45:33;98084.06;;;19.14;37.07
13312;BME280;34033;48.672;9.376;2023-03-22T11:48:14;98079.19;;;19.15;36.86
13312;BME280;34033;48.672;9.376;2023-03-22T11:50:43;98074.75;;;19.14;36.10
13312;BME280;34033;48.672;9.376;2023-03-22T11:53:14;98078.56;;;19.33;35.88
13312;BME280;34033;48.672;9.376;2023-03-22T11:55:41;98075.59;;;19.36;35.14
13312;BME280;34033;48.672;9.376;2023-03-22T11:58:21;98068.03;;;19.46;34.54
13312;BME280;34033;48.672;9.376;2023-03-22T12:00:49;98050.03;;;19.62;33.50
13312;BME280;34033;48.672;9.376;2023-03-22T12:03:19;98055.72;;;19.83;34.13
13312;BME280;34033;48.672;9.376;2023-03-22T12:05:48;98048.91;;;20.03;33.33
13312;BME280;34033;48.672;9.376;2023-03-22T12:08:23;98049.91;;;19.87;32.68
13312;BME280;34033;48.672;9.376;2023-03-22T12:10:56;98054.78;;;19.86;33.18
13312;BME280;34033;48.672;9.376;2023-03-22T12:13:48;98035.28;;;19.88;32.38
13312;BME280;34033;48.672;9.376;2023-03-22T12:16:20;98027.34;;;20.05;33.00
13312;BME280;34033;48.672;9.376;2023-03-22T12:19:16;98028.53;;;20.26;32.57
13312;BME280;34033;48.672;9.376;2023-03-22T12:21:47;98038.75;;;20.23;33.40
13312;BME280;34033;48.672;9.376;2023-03-22T12:24:28;98026.13;;;20.15;33.58
13312;BME280;34033;48.672;9.376;2023-03-22T12:27:16;98019.94;;;20.08;32.82
13312;BME280;34033;48.672;9.376;2023-03-22T12:32:44;98017.81;;;20.21;31.85
13312;BME280;34033;48.672;9.376;2023-03-22T12:35:17;98021.09;;;20.19;31.97
13312;BME280;34033;48.672;9.376;2023-03-22T12:37:48;98018.91;;;20.23;32.49
13312;BME280;34033;48.672;9.376;2023-03-22T12:40:20;98029.09;;;20.33;32.18
13312;BME280;34033;48.672;9.376;2023-03-22T12:46:02;98021.91;;;20.29;31.43
13312;BME280;34033;48.672;9.376;2023-03-22T12:51:29;98024.09;;;20.47;31.75
13312;BME280;34033;48.672;9.376;2023-03-22T12:53:56;98007.22;;;20.43;32.39
13312;BME280;34033;48.672;9.376;2023-03-22T12:56:42;98008.56;;;20.69;32.08
13312;BME280;34033;48.672;9.376;2023-03-22T12:59:22;98007.69;;;21.09;31.47
13312;BME280;34033;48.672;9.376;2023-03-22T13:02:41;98011.22;;;21.40;31.80
13312;BME280;34033;48.672;9.376;2023-03-22T13:04:51;98004.41;;;21.56;31.01
13312;BME280;34033;48.672;9.376;2023-03-22T13:21:12;97984.69;;;21.43;31.68
13312;BME280;34033;48.672;9.376;2023-03-22T13:26:45;97980.22;;;21.88;30.99
13312;BME280;34033;48.672;9.376;2023-03-22T13:29:23;97959.00;;;22.07;31.17
13312;BME280;34033;48.672;9.376;2023-03-22T13:31:56;97961.69;;;22.11;29.97
13312;BME280;34033;48.672;9.376;2023-03-22T13:34:36;97960.94;;;22.34;29.48
13312;BME280;34033;48.672;9.376;2023-03-22T13:37:08;97940.44;;;22.54;28.22
13312;BME280;34033;48.672;9.376;2023-03-22T13:39:34;97948.25;;;22.68;28.22
13312;BME280;34033;48.672;9.376;2023-03-22T13:42:15;97945.03;;;22.51;28.59
13312;BME280;34033;48.672;9.376;2023-03-22T13:44:42;97945.41;;;22.77;28.47
13312;BME280;34033;48.672;9.376;2023-03-22T13:47:34;97946.25;;;22.92;28.10
13312;BME280;34033;48.672;9.376;2023-03-22T13:50:01;97953.09;;;22.85;27.38
13312;BME280;34033;48.672;9.376;2023-03-22T13:52:37;97937.72;;;22.59;27.53
13312;BME280;34033;48.672;9.376;2023-03-22T13:55:32;97947.47;;;22.43;27.88
13312;BME280;34033;48.672;9.376;2023-03-22T13:58:01;97938.22;;;22.25;27.73
13312;BME280;34033;48.672;9.376;2023-03-22T14:02:55;97947.13;;;22.09;27.18
13312;BME280;34033;48.672;9.376;2023-03-22T14:05:22;97926.22;;;22.21;27.25
13312;BME280;34033;48.672;9.376;2023-03-22T14:07:51;97920.00;;;22.31;27.51
13312;BME280;34033;48.672;9.376;2023-03-22T14:12:55;97914.59;;;22.90;27.26
13312;BME280;34033;48.672;9.376;2023-03-22T14:15:24;97911.88;;;23.10;27.38
13312;BME280;34033;48.672;9.376;2023-03-22T14:20:24;97916.94;;;23.15;26.65
13312;BME280;34033;48.672;9.376;2023-03-22T14:22:56;97911.25;;;22.92;26.24
13312;BME280;34033;48.672;9.376;2023-03-22T14:25:26;97904.19;;;22.87;25.66
13312;BME280;34033;48.672;9.376;2023-03-22T14:27:53;97909.88;;;22.87;26.01
13312;BME280;34033;48.672;9.376;2023-03-22T14:33:00;97903.94;;;23.14;26.28
13312;BME280;34033;48.672;9.376;2023-03-22T14:35:53;97912.75;;;23.02;25.94
13312;BME280;34033;48.672;9.376;2023-03-22T14:38:47;97902.13;;;23.26;25.66